createdAt,value
2019-02-07T00:00:12.030Z,33.10
2019-02-07T00:00:50.947Z,34.48
2019-02-07T00:01:28.717Z,34.15
2019-02-07T00:02:01.950Z,34.45
2019-02-07T00:02:35.089Z,34.00
2019-02-07T00:03:08.158Z,34.18
2019-02-07T00:03:41.380Z,34.48
2019-02-07T00:04:14.540Z,34.00
2019-02-07T00:04:47.569Z,34.18
2019-02-07T00:05:27.156Z,34.38
2019-02-07T00:06:00.412Z,33.85
2019-02-07T00:06:33.968Z,34.20
2019-02-07T00:07:07.263Z,33.35
2019-02-07T00:07:41.528Z,33.88
2019-02-07T00:08:14.663Z,33.80
2019-02-07T00:08:47.965Z,33.50
2019-02-07T00:09:21.294Z,34.10
2019-02-07T00:09:54.655Z,33.40
2019-02-07T00:10:27.877Z,33.75
2019-02-07T00:11:01.911Z,34.05
2019-02-07T00:11:34.757Z,34.58
2019-02-07T00:12:08.279Z,33.60
2019-02-07T00:12:41.384Z,33.50
2019-02-07T00:13:14.450Z,33.88
2019-02-07T00:13:48.554Z,34.27
2019-02-07T00:14:21.588Z,34.33
2019-02-07T00:14:54.585Z,33.83
2019-02-07T00:15:27.656Z,34.55
2019-02-07T00:16:00.723Z,33.90
2019-02-07T00:16:33.874Z,34.05
2019-02-07T00:17:07.004Z,33.92
2019-02-07T00:17:40.076Z,34.55
2019-02-07T00:18:13.073Z,34.10
2019-02-07T00:18:46.208Z,33.80
2019-02-07T00:19:19.523Z,34.58
2019-02-07T00:19:52.684Z,34.18
2019-02-07T00:20:26.701Z,32.98
2019-02-07T00:20:59.773Z,34.65
2019-02-07T00:21:32.791Z,34.08
2019-02-07T00:22:07.751Z,33.02
2019-02-07T00:22:40.989Z,34.15
2019-02-07T00:23:14.149Z,33.95
2019-02-07T00:23:47.319Z,33.67
2019-02-07T00:24:20.288Z,33.35
2019-02-07T00:24:53.201Z,34.05
2019-02-07T00:25:26.286Z,33.18
2019-02-07T00:25:59.545Z,33.73
2019-02-07T00:26:32.632Z,33.67
2019-02-07T00:27:06.136Z,34.25
2019-02-07T00:27:39.188Z,33.90
2019-02-07T00:28:12.763Z,33.25
2019-02-07T00:28:45.790Z,33.67
2019-02-07T00:29:18.803Z,33.67
2019-02-07T00:29:51.894Z,32.83
2019-02-07T00:30:24.895Z,33.28
2019-02-07T00:30:58.095Z,33.92
2019-02-07T00:31:31.000Z,32.70
2019-02-07T00:32:04.230Z,33.90
2019-02-07T00:32:37.332Z,33.88
2019-02-07T00:33:10.402Z,32.85
2019-02-07T00:33:43.427Z,33.78
2019-02-07T00:34:16.358Z,33.90
2019-02-07T00:34:49.391Z,33.90
2019-02-07T00:35:22.633Z,34.45
2019-02-07T00:35:56.848Z,34.05
2019-02-07T00:36:29.804Z,33.95
2019-02-07T00:37:02.795Z,34.00
2019-02-07T00:37:35.850Z,33.55
2019-02-07T00:38:08.948Z,34.18
2019-02-07T00:38:42.014Z,33.78
2019-02-07T00:39:15.355Z,34.27
2019-02-07T00:39:48.604Z,34.10
2019-02-07T00:40:21.646Z,34.15
2019-02-07T00:40:54.786Z,34.63
2019-02-07T00:41:27.764Z,33.85
2019-02-07T00:42:01.204Z,34.13
2019-02-07T00:42:34.959Z,34.43
2019-02-07T00:43:08.422Z,34.48
2019-02-07T00:43:41.452Z,34.00
2019-02-07T00:44:15.124Z,34.53
2019-02-07T00:44:51.042Z,34.15
2019-02-07T00:45:23.272Z,34.45
2019-02-07T00:45:56.520Z,34.53
2019-02-07T00:46:29.783Z,33.53
2019-02-07T00:47:03.025Z,34.15
2019-02-07T00:47:36.548Z,34.35
2019-02-07T00:48:11.002Z,33.67
2019-02-07T00:48:44.122Z,34.33
2019-02-07T00:49:16.988Z,34.38
2019-02-07T00:49:49.917Z,33.92
2019-02-07T00:50:24.022Z,33.42
2019-02-07T00:50:57.206Z,34.13
2019-02-07T00:51:30.236Z,34.38
2019-02-07T00:52:03.475Z,34.80
2019-02-07T00:52:36.604Z,34.78
2019-02-07T00:53:09.677Z,34.45
2019-02-07T00:53:43.722Z,34.20
2019-02-07T00:54:16.741Z,35.05
2019-02-07T00:54:50.998Z,34.88
2019-02-07T00:55:24.238Z,33.88
2019-02-07T00:55:57.414Z,33.78
2019-02-07T00:56:30.699Z,34.30
2019-02-07T00:57:03.972Z,35.20
2019-02-07T00:57:37.390Z,34.63
2019-02-07T00:58:10.638Z,33.88
2019-02-07T00:58:43.675Z,34.58
2019-02-07T00:59:16.689Z,33.15
2019-02-07T00:59:50.061Z,34.58
2019-02-07T01:00:23.927Z,34.27
2019-02-07T01:00:57.023Z,34.45
2019-02-07T01:01:30.854Z,34.92
2019-02-07T01:02:04.600Z,34.88
2019-02-07T01:02:38.098Z,35.08
2019-02-07T01:03:11.243Z,34.73
2019-02-07T01:03:44.752Z,35.28
2019-02-07T01:04:17.706Z,34.80
2019-02-07T01:04:50.662Z,34.85
2019-02-07T01:05:23.939Z,34.63
2019-02-07T01:05:56.956Z,35.03
2019-02-07T01:06:30.015Z,34.05
2019-02-07T01:07:03.454Z,34.20
2019-02-07T01:07:37.610Z,35.28
2019-02-07T01:08:10.852Z,35.03
2019-02-07T01:08:44.005Z,34.73
2019-02-07T01:09:17.034Z,35.10
2019-02-07T01:09:50.153Z,35.03
2019-02-07T01:10:24.450Z,35.88
2019-02-07T01:10:57.756Z,34.20
2019-02-07T01:11:31.024Z,35.50
2019-02-07T01:12:04.360Z,35.03
2019-02-07T01:12:37.648Z,35.98
2019-02-07T01:13:10.784Z,35.28
2019-02-07T01:13:45.050Z,36.08
2019-02-07T01:14:18.268Z,35.08
2019-02-07T01:15:01.428Z,35.05
2019-02-07T01:15:27.127Z,35.35
2019-02-07T01:16:00.462Z,35.00
2019-02-07T01:17:23.626Z,36.17
2019-02-07T01:17:56.940Z,36.42
2019-02-07T01:18:29.954Z,35.38
2019-02-07T01:19:03.344Z,35.80
2019-02-07T01:19:37.340Z,36.38
2019-02-07T01:20:12.136Z,36.45
2019-02-07T01:20:45.983Z,35.23
2019-02-07T01:21:20.668Z,35.73
2019-02-07T01:21:53.750Z,36.08
2019-02-07T01:22:27.058Z,36.15
2019-02-07T01:23:00.172Z,36.05
2019-02-07T01:23:34.828Z,36.08
2019-02-07T01:24:08.170Z,36.33
2019-02-07T01:24:41.324Z,36.42
2019-02-07T01:25:17.910Z,36.83
2019-02-07T01:25:51.047Z,36.10
2019-02-07T01:26:25.700Z,36.35
2019-02-07T01:26:58.860Z,36.08
2019-02-07T01:27:31.926Z,35.78
2019-02-07T01:28:05.092Z,37.10
2019-02-07T01:28:39.478Z,36.23
2019-02-07T01:29:12.584Z,36.40
2019-02-07T01:29:46.728Z,35.95
2019-02-07T01:30:20.740Z,36.53
2019-02-07T01:30:55.378Z,35.85
2019-02-07T01:31:28.557Z,37.08
2019-02-07T01:32:01.697Z,36.50
2019-02-07T01:32:35.196Z,36.93
2019-02-07T01:33:08.934Z,37.15
2019-02-07T01:33:42.094Z,36.73
2019-02-07T01:34:15.192Z,36.50
2019-02-07T01:34:48.681Z,37.35
2019-02-07T01:35:21.871Z,36.08
2019-02-07T01:35:55.252Z,35.50
2019-02-07T01:36:28.406Z,36.42
2019-02-07T01:37:01.600Z,36.58
2019-02-07T01:37:35.567Z,36.53
2019-02-07T01:38:08.608Z,36.40
2019-02-07T01:38:41.674Z,36.93
2019-02-07T01:39:14.625Z,35.65
2019-02-07T01:39:47.855Z,36.73
2019-02-07T01:40:21.979Z,35.68
2019-02-07T01:40:55.120Z,36.23
2019-02-07T01:41:28.317Z,36.35
2019-02-07T01:42:03.182Z,36.42
2019-02-07T01:42:36.341Z,35.95
2019-02-07T01:43:09.515Z,34.63
2019-02-07T01:43:42.556Z,34.85
2019-02-07T01:44:15.534Z,35.70
2019-02-07T01:44:48.603Z,36.60
2019-02-07T01:45:21.864Z,35.52
2019-02-07T01:45:55.009Z,35.08
2019-02-07T01:46:28.180Z,36.23
2019-02-07T01:47:01.361Z,35.80
2019-02-07T01:47:34.457Z,35.78
2019-02-07T01:48:07.670Z,35.00
2019-02-07T01:48:40.691Z,35.45
2019-02-07T01:49:13.891Z,35.45
2019-02-07T01:49:48.491Z,34.53
2019-02-07T01:50:22.281Z,34.27
2019-02-07T01:50:55.838Z,35.20
2019-02-07T01:51:29.230Z,35.55
2019-02-07T01:52:02.684Z,34.58
2019-02-07T01:52:35.948Z,35.25
2019-02-07T01:53:09.195Z,35.35
2019-02-07T01:53:42.247Z,34.35
2019-02-07T01:54:15.403Z,34.95
2019-02-07T01:54:48.585Z,35.40
2019-02-07T01:55:21.850Z,35.15
2019-02-07T01:55:54.783Z,34.80
2019-02-07T01:56:27.830Z,35.25
2019-02-07T01:57:00.924Z,34.35
2019-02-07T01:57:34.116Z,35.30
2019-02-07T01:58:07.216Z,34.80
2019-02-07T01:58:40.545Z,34.18
2019-02-07T01:59:13.515Z,35.25
2019-02-07T01:59:46.587Z,35.15
2019-02-07T02:00:19.733Z,34.85
2019-02-07T02:00:54.359Z,34.30
2019-02-07T02:01:27.407Z,34.20
2019-02-07T02:02:00.579Z,34.65
2019-02-07T02:02:33.625Z,34.48
2019-02-07T02:03:06.855Z,34.45
2019-02-07T02:03:39.964Z,34.67
2019-02-07T02:04:13.032Z,34.38
2019-02-07T02:04:46.187Z,34.15
2019-02-07T02:05:20.001Z,33.20
2019-02-07T02:05:53.474Z,34.60
2019-02-07T02:06:26.621Z,34.85
2019-02-07T02:07:00.167Z,34.73
2019-02-07T02:07:35.054Z,34.75
2019-02-07T02:08:08.569Z,34.18
2019-02-07T02:08:41.660Z,34.92
2019-02-07T02:09:14.759Z,33.98
2019-02-07T02:09:47.829Z,33.30
2019-02-07T02:10:25.480Z,34.20
2019-02-07T02:10:58.699Z,34.00
2019-02-07T02:11:31.843Z,35.15
2019-02-07T02:12:05.069Z,34.83
2019-02-07T02:12:38.135Z,34.33
2019-02-07T02:13:11.255Z,34.15
2019-02-07T02:13:44.477Z,34.80
2019-02-07T02:14:18.439Z,32.75
2019-02-07T02:14:51.523Z,35.15
2019-02-07T02:15:25.576Z,34.25
2019-02-07T02:15:58.750Z,34.25
2019-02-07T02:16:32.997Z,34.85
2019-02-07T02:17:06.067Z,34.65
2019-02-07T02:17:39.148Z,35.05
2019-02-07T02:18:31.937Z,35.05
2019-02-07T02:19:05.108Z,34.90
2019-02-07T02:19:38.459Z,35.03
2019-02-07T02:20:11.968Z,33.65
2019-02-07T02:20:45.603Z,35.20
2019-02-07T02:21:18.706Z,35.23
2019-02-07T02:21:51.759Z,34.83
2019-02-07T02:22:24.986Z,34.90
2019-02-07T02:22:58.773Z,34.90
2019-02-07T02:23:31.873Z,33.15
2019-02-07T02:24:05.071Z,35.35
2019-02-07T02:24:38.415Z,34.88
2019-02-07T02:25:11.573Z,35.58
2019-02-07T02:25:44.623Z,34.50
2019-02-07T02:26:17.772Z,34.63
2019-02-07T02:26:51.066Z,35.50
2019-02-07T02:27:24.211Z,35.10
2019-02-07T02:27:57.778Z,34.38
2019-02-07T02:28:30.996Z,35.13
2019-02-07T02:29:04.081Z,35.52
2019-02-07T02:29:37.118Z,35.10
2019-02-07T02:30:16.777Z,35.03
2019-02-07T02:30:49.877Z,35.35
2019-02-07T02:31:22.826Z,35.90
2019-02-07T02:31:55.852Z,35.92
2019-02-07T02:32:29.001Z,36.10
2019-02-07T02:33:02.494Z,35.35
2019-02-07T02:33:35.709Z,35.60
2019-02-07T02:34:08.751Z,35.70
2019-02-07T02:34:41.831Z,35.48
2019-02-07T02:35:14.834Z,34.98
2019-02-07T02:35:48.979Z,35.78
2019-02-07T02:36:21.985Z,36.48
2019-02-07T02:36:55.345Z,36.77
2019-02-07T02:37:28.451Z,35.73
2019-02-07T02:38:02.062Z,36.80
2019-02-07T02:38:35.169Z,34.90
2019-02-07T02:39:08.743Z,36.73
2019-02-07T02:39:41.851Z,36.10
2019-02-07T02:40:15.182Z,37.08
2019-02-07T02:40:48.195Z,35.30
2019-02-07T02:41:21.358Z,36.45
2019-02-07T02:41:54.389Z,37.05
2019-02-07T02:42:27.433Z,37.45
2019-02-07T02:43:00.485Z,36.23
2019-02-07T02:43:33.561Z,36.42
2019-02-07T02:44:06.567Z,36.68
2019-02-07T02:44:39.595Z,35.58
2019-02-07T02:45:14.405Z,37.53
2019-02-07T02:45:47.452Z,36.00
2019-02-07T02:46:20.571Z,36.98
2019-02-07T02:46:53.524Z,36.00
2019-02-07T02:47:27.165Z,34.88
2019-02-07T02:48:00.209Z,36.42
2019-02-07T02:48:33.200Z,36.83
2019-02-07T02:49:06.251Z,36.83
2019-02-07T02:49:39.268Z,36.65
2019-02-07T02:50:15.221Z,36.48
2019-02-07T02:50:48.235Z,36.65
2019-02-07T02:51:21.317Z,36.35
2019-02-07T02:51:54.350Z,34.45
2019-02-07T02:52:27.390Z,36.23
2019-02-07T02:53:00.842Z,36.30
2019-02-07T02:53:33.922Z,35.70
2019-02-07T02:54:18.989Z,36.20
2019-02-07T02:54:53.420Z,37.38
2019-02-07T02:55:44.874Z,37.17
2019-02-07T02:56:17.848Z,37.10
2019-02-07T02:56:51.009Z,36.30
2019-02-07T02:57:24.171Z,35.05
2019-02-07T02:57:57.208Z,36.15
2019-02-07T02:58:30.365Z,37.03
2019-02-07T02:59:04.190Z,37.63
2019-02-07T02:59:37.287Z,37.20
2019-02-07T03:00:15.746Z,36.83
2019-02-07T03:01:15.152Z,36.28
2019-02-07T03:01:58.451Z,37.17
2019-02-07T03:02:57.312Z,35.98
2019-02-07T03:03:38.657Z,34.30
2019-02-07T03:04:23.883Z,36.20
2019-02-07T03:05:16.545Z,36.75
2019-02-07T03:06:00.861Z,36.03
2019-02-07T03:06:59.541Z,36.90
2019-02-07T03:07:51.048Z,35.28
2019-02-07T03:08:38.903Z,35.58
2019-02-07T03:09:34.530Z,35.35
2019-02-07T03:10:20.605Z,35.35
2019-02-07T03:11:25.308Z,35.15
2019-02-07T03:12:24.788Z,35.95
2019-02-07T03:13:12.882Z,35.45
2019-02-07T03:14:05.451Z,34.78
2019-02-07T03:14:57.115Z,35.13
2019-02-07T03:15:49.276Z,35.33
2019-02-07T03:16:28.207Z,35.13
2019-02-07T03:17:15.242Z,35.50
2019-02-07T03:18:16.661Z,35.60
2019-02-07T03:19:12.302Z,34.80
2019-02-07T03:20:11.104Z,35.28
2019-02-07T03:21:03.202Z,35.23
2019-02-07T03:21:50.340Z,34.00
2019-02-07T03:22:42.990Z,35.00
2019-02-07T03:23:34.699Z,34.78
2019-02-07T03:24:26.170Z,33.98
2019-02-07T03:25:22.717Z,34.65
2019-02-07T03:26:10.559Z,34.55
2019-02-07T03:27:18.294Z,33.70
2019-02-07T03:28:13.848Z,33.78
2019-02-07T03:29:05.546Z,34.65
2019-02-07T03:30:05.445Z,34.48
2019-02-07T03:31:01.248Z,34.65
2019-02-07T03:31:51.941Z,33.58
2019-02-07T03:32:43.321Z,34.13
2019-02-07T03:33:23.410Z,34.35
2019-02-07T03:34:21.437Z,34.58
2019-02-07T03:35:04.471Z,35.10
2019-02-07T03:35:59.020Z,31.93
2019-02-07T03:36:49.944Z,33.67
2019-02-07T03:37:45.204Z,32.67
2019-02-07T03:38:34.186Z,34.70
2019-02-07T03:39:22.106Z,33.83
2019-02-07T03:40:11.040Z,33.75
2019-02-07T03:41:06.944Z,34.15
2019-02-07T03:41:47.602Z,32.90
2019-02-07T03:42:40.030Z,32.98
2019-02-07T03:43:31.654Z,33.33
2019-02-07T03:44:42.685Z,33.83
2019-02-07T03:46:02.369Z,33.60
2019-02-07T03:46:46.366Z,33.28
2019-02-07T03:47:34.823Z,32.85
2019-02-07T03:48:39.734Z,33.05
2019-02-07T03:49:40.710Z,33.28
2019-02-07T03:50:25.849Z,34.15
2019-02-07T03:51:30.638Z,33.20
2019-02-07T03:52:22.228Z,31.95
2019-02-07T03:53:14.894Z,33.02
2019-02-07T03:54:02.766Z,33.33
2019-02-07T03:54:58.140Z,32.40
2019-02-07T03:55:50.814Z,32.50
2019-02-07T03:56:54.212Z,32.50
2019-02-07T03:57:46.375Z,32.08
2019-02-07T03:58:37.880Z,31.87
2019-02-07T03:59:36.262Z,32.65
2019-02-07T04:00:29.892Z,32.38
2019-02-07T04:01:28.456Z,31.80
2019-02-07T04:02:19.906Z,31.17
2019-02-07T04:03:08.938Z,32.17
2019-02-07T04:04:10.628Z,31.60
2019-02-07T04:05:01.672Z,32.08
2019-02-07T04:05:47.902Z,31.37
2019-02-07T04:06:42.546Z,32.50
2019-02-07T04:07:32.725Z,31.50
2019-02-07T04:08:28.114Z,30.88
2019-02-07T04:09:19.567Z,31.33
2019-02-07T04:10:12.628Z,31.70
2019-02-07T04:11:05.462Z,31.55
2019-02-07T04:11:58.120Z,31.12
2019-02-07T04:12:46.899Z,31.97
2019-02-07T04:13:48.851Z,32.40
2019-02-07T04:14:47.420Z,32.38
2019-02-07T04:15:55.184Z,31.70
2019-02-07T04:16:58.385Z,31.50
2019-02-07T04:17:59.903Z,32.17
2019-02-07T04:18:52.271Z,31.90
2019-02-07T04:19:57.182Z,31.65
2019-02-07T04:21:07.783Z,31.97
2019-02-07T04:21:50.361Z,31.07
2019-02-07T04:22:41.675Z,32.88
2019-02-07T04:23:43.177Z,32.38
2019-02-07T04:24:54.153Z,31.80
2019-02-07T04:25:44.045Z,31.65
2019-02-07T04:26:33.705Z,30.97
2019-02-07T04:27:32.802Z,31.77
2019-02-07T04:28:25.634Z,32.03
2019-02-07T04:29:18.095Z,31.17
2019-02-07T04:30:09.824Z,32.00
2019-02-07T04:30:49.738Z,31.12
2019-02-07T04:31:40.945Z,32.53
2019-02-07T04:32:36.676Z,31.50
2019-02-07T04:33:28.414Z,31.75
2019-02-07T04:34:25.873Z,31.15
2019-02-07T04:35:17.271Z,30.88
2019-02-07T04:36:16.290Z,30.82
2019-02-07T04:37:14.823Z,32.05
2019-02-07T04:38:13.143Z,32.30
2019-02-07T04:39:09.820Z,32.40
2019-02-07T04:39:52.431Z,32.15
2019-02-07T04:40:35.535Z,31.87
2019-02-07T04:41:26.849Z,32.55
2019-02-07T04:42:18.531Z,32.05
2019-02-07T04:43:11.283Z,32.55
2019-02-07T04:44:02.673Z,32.88
2019-02-07T04:44:58.092Z,32.60
2019-02-07T04:45:49.443Z,32.78
2019-02-07T04:46:46.334Z,32.60
2019-02-07T04:47:37.634Z,33.30
2019-02-07T04:48:20.469Z,33.33
2019-02-07T04:49:16.557Z,32.80
2019-02-07T04:50:21.676Z,32.88
2019-02-07T04:51:33.133Z,32.13
2019-02-07T04:52:26.800Z,33.28
2019-02-07T04:53:20.639Z,32.88
2019-02-07T04:54:12.611Z,32.15
2019-02-07T04:54:54.093Z,32.38
2019-02-07T04:55:58.996Z,32.40
2019-02-07T04:56:47.882Z,32.63
2019-02-07T04:57:39.603Z,32.30
2019-02-07T04:58:22.976Z,32.40
2019-02-07T04:59:25.117Z,32.50
2019-02-07T05:00:36.155Z,32.00
2019-02-07T05:01:26.459Z,31.75
2019-02-07T05:02:24.533Z,32.38
2019-02-07T05:03:19.913Z,32.53
2019-02-07T05:04:08.657Z,31.50
2019-02-07T05:04:55.237Z,31.50
2019-02-07T05:05:39.365Z,32.23
2019-02-07T05:06:32.933Z,32.28
2019-02-07T05:07:29.783Z,31.90
2019-02-07T05:08:21.401Z,30.48
2019-02-07T05:09:12.987Z,30.30
2019-02-07T05:10:11.131Z,30.45
2019-02-07T05:11:02.497Z,30.35
2019-02-07T05:11:48.311Z,29.82
2019-02-07T05:12:56.340Z,29.92
2019-02-07T05:13:51.996Z,29.55
2019-02-07T05:14:53.417Z,29.60
2019-02-07T05:15:49.899Z,28.98
2019-02-07T05:16:45.875Z,29.02
2019-02-07T05:17:36.927Z,29.60
2019-02-07T05:18:27.917Z,28.92
2019-02-07T05:19:13.769Z,28.50
2019-02-07T05:20:14.229Z,29.25
2019-02-07T05:20:59.449Z,27.62
2019-02-07T05:21:45.547Z,28.57
2019-02-07T05:22:35.738Z,28.27
2019-02-07T05:23:27.284Z,28.70
2019-02-07T05:24:28.824Z,28.73
2019-02-07T05:25:09.441Z,28.42
2019-02-07T05:25:59.425Z,28.32
2019-02-07T05:26:43.042Z,28.45
2019-02-07T05:27:35.121Z,27.93
2019-02-07T05:28:30.919Z,27.98
2019-02-07T05:29:13.646Z,27.95
2019-02-07T05:30:18.209Z,28.42
2019-02-07T05:31:15.536Z,28.25
2019-02-07T05:32:20.474Z,28.23
2019-02-07T05:33:01.460Z,27.87
2019-02-07T05:33:44.402Z,27.93
2019-02-07T05:34:40.221Z,28.40
2019-02-07T05:35:33.045Z,27.42
2019-02-07T05:36:24.384Z,27.85
2019-02-07T05:37:11.450Z,27.90
2019-02-07T05:38:05.665Z,27.90
2019-02-07T05:39:04.169Z,27.48
2019-02-07T05:40:00.903Z,27.45
2019-02-07T05:41:00.983Z,27.85
2019-02-07T05:41:48.255Z,27.50
2019-02-07T05:42:50.279Z,27.52
2019-02-07T05:43:43.954Z,27.67
2019-02-07T05:44:51.596Z,26.70
2019-02-07T05:45:42.960Z,27.25
2019-02-07T05:46:26.684Z,26.60
2019-02-07T05:47:24.234Z,26.97
2019-02-07T05:48:16.100Z,26.62
2019-02-07T05:49:23.880Z,26.50
2019-02-07T05:50:14.977Z,26.87
2019-02-07T05:51:16.470Z,26.55
2019-02-07T05:52:11.861Z,26.70
2019-02-07T05:52:58.675Z,25.52
2019-02-07T05:53:50.238Z,26.50
2019-02-07T05:54:38.003Z,26.97
2019-02-07T05:55:33.673Z,26.70
2019-02-07T05:56:25.101Z,26.40
2019-02-07T05:57:10.774Z,27.13
2019-02-07T05:58:03.002Z,26.70
2019-02-07T05:59:01.870Z,26.37
2019-02-07T05:59:54.670Z,26.30
2019-02-07T06:00:52.680Z,26.57
2019-02-07T06:01:43.902Z,26.30
2019-02-07T06:02:26.622Z,25.68
2019-02-07T06:03:26.782Z,25.25
2019-02-07T06:04:25.321Z,25.50
2019-02-07T06:05:33.270Z,24.95
2019-02-07T06:06:17.208Z,25.02
2019-02-07T06:07:15.645Z,24.52
2019-02-07T06:07:58.964Z,25.35
2019-02-07T06:08:42.694Z,25.45
2019-02-07T06:09:53.946Z,25.00
2019-02-07T06:10:56.867Z,24.70
2019-02-07T06:11:52.134Z,24.50
2019-02-07T06:12:43.761Z,24.10
2019-02-07T06:13:30.866Z,23.95
2019-02-07T06:14:22.437Z,24.20
2019-02-07T06:15:23.411Z,24.05
2019-02-07T06:16:18.728Z,23.75
2019-02-07T06:17:14.810Z,23.92
2019-02-07T06:18:07.526Z,24.15
2019-02-07T06:19:09.408Z,24.20
2019-02-07T06:19:59.642Z,23.90
2019-02-07T06:20:42.994Z,23.95
2019-02-07T06:21:41.688Z,23.98
2019-02-07T06:22:32.894Z,24.10
2019-02-07T06:23:29.360Z,24.20
2019-02-07T06:24:22.204Z,24.07
2019-02-07T06:25:12.206Z,24.47
2019-02-07T06:26:05.744Z,24.80
2019-02-07T06:27:04.404Z,24.25
2019-02-07T06:28:10.296Z,24.52
2019-02-07T06:29:08.904Z,24.40
2019-02-07T06:30:08.405Z,24.30
2019-02-07T06:30:51.167Z,24.60
2019-02-07T06:31:43.701Z,24.30
2019-02-07T06:32:25.856Z,24.95
2019-02-07T06:33:21.376Z,24.82
2019-02-07T06:34:12.686Z,24.90
2019-02-07T06:35:08.302Z,24.82
2019-02-07T06:35:50.454Z,24.77
2019-02-07T06:36:35.846Z,24.47
2019-02-07T06:37:18.304Z,24.40
2019-02-07T06:38:03.279Z,24.95
2019-02-07T06:38:54.666Z,25.20
2019-02-07T06:39:55.425Z,24.27
2019-02-07T06:40:46.687Z,24.10
2019-02-07T06:41:49.597Z,24.63
2019-02-07T06:42:46.292Z,24.37
2019-02-07T06:43:50.941Z,24.70
2019-02-07T06:44:42.088Z,24.45
2019-02-07T06:45:29.542Z,24.45
2019-02-07T06:46:21.526Z,24.23
2019-02-07T06:47:20.227Z,24.32
2019-02-07T06:48:10.800Z,25.37
2019-02-07T06:49:02.026Z,24.63
2019-02-07T06:49:59.863Z,25.30
2019-02-07T06:51:01.514Z,24.57
2019-02-07T06:51:54.074Z,24.43
2019-02-07T06:52:39.726Z,24.37
2019-02-07T06:53:44.534Z,24.92
2019-02-07T06:54:27.148Z,24.70
2019-02-07T06:55:13.105Z,24.20
2019-02-07T06:55:57.259Z,24.77
2019-02-07T06:57:03.462Z,24.35
2019-02-07T06:58:14.315Z,24.10
2019-02-07T06:59:13.926Z,24.70
2019-02-07T07:00:07.703Z,25.12
2019-02-07T07:00:49.805Z,24.45
2019-02-07T07:01:45.391Z,25.25
2019-02-07T07:02:36.629Z,25.10
2019-02-07T07:03:26.885Z,24.63
2019-02-07T07:04:16.988Z,24.85
2019-02-07T07:05:01.198Z,24.57
2019-02-07T07:05:54.274Z,24.65
2019-02-07T07:06:40.122Z,25.23
2019-02-07T07:07:45.375Z,24.65
2019-02-07T07:08:46.967Z,24.55
2019-02-07T07:09:57.845Z,24.90
2019-02-07T07:10:49.290Z,25.23
2019-02-07T07:12:00.199Z,25.08
2019-02-07T07:13:02.084Z,24.95
2019-02-07T07:14:08.160Z,25.32
2019-02-07T07:14:59.912Z,25.25
2019-02-07T07:15:42.096Z,25.02
2019-02-07T07:16:24.723Z,24.95
2019-02-07T07:17:25.402Z,25.68
2019-02-07T07:18:23.835Z,25.45
2019-02-07T07:19:14.869Z,26.50
2019-02-07T07:20:25.995Z,25.20
2019-02-07T07:21:25.017Z,25.45
2019-02-07T07:22:16.629Z,25.30
2019-02-07T07:23:12.127Z,24.63
2019-02-07T07:24:05.379Z,25.10
2019-02-07T07:25:16.266Z,25.02
2019-02-07T07:26:11.678Z,25.15
2019-02-07T07:27:07.402Z,25.15
2019-02-07T07:28:00.407Z,25.50
2019-02-07T07:28:44.252Z,25.25
2019-02-07T07:29:35.925Z,26.02
2019-02-07T07:30:34.839Z,24.67
2019-02-07T07:31:39.398Z,26.23
2019-02-07T07:32:30.689Z,24.75
2019-02-07T07:33:22.246Z,25.00
2019-02-07T07:34:07.383Z,25.50
2019-02-07T07:35:02.805Z,25.45
2019-02-07T07:36:06.110Z,25.57
2019-02-07T07:36:50.975Z,24.82
2019-02-07T07:37:42.887Z,25.97
2019-02-07T07:38:28.290Z,25.62
2019-02-07T07:39:34.299Z,25.17
2019-02-07T07:40:34.733Z,25.90
2019-02-07T07:41:28.084Z,25.15
2019-02-07T07:42:28.412Z,25.92
2019-02-07T07:43:19.957Z,25.08
2019-02-07T07:44:24.553Z,25.40
2019-02-07T07:45:23.150Z,25.30
2019-02-07T07:46:12.117Z,25.30
2019-02-07T07:47:03.907Z,25.27
2019-02-07T07:47:55.429Z,24.67
2019-02-07T07:48:47.277Z,25.75
2019-02-07T07:49:40.123Z,25.27
2019-02-07T07:50:34.050Z,25.65
2019-02-07T07:51:22.545Z,25.48
2019-02-07T07:52:33.659Z,24.37
2019-02-07T07:53:31.772Z,24.70
2019-02-07T07:54:14.761Z,25.62
2019-02-07T07:55:10.476Z,24.90
2019-02-07T07:56:00.546Z,24.77
2019-02-07T07:57:02.778Z,24.95
2019-02-07T07:57:50.935Z,25.17
2019-02-07T07:58:35.429Z,24.82
2019-02-07T07:59:28.207Z,24.80
2019-02-07T08:00:26.762Z,23.85
2019-02-07T08:01:18.329Z,25.30
2019-02-07T08:02:10.992Z,26.00
2019-02-07T08:03:16.158Z,25.43
2019-02-07T08:04:03.355Z,25.43
2019-02-07T08:04:54.842Z,25.10
2019-02-07T08:05:37.578Z,25.15
2019-02-07T08:06:23.242Z,24.98
2019-02-07T08:07:06.476Z,24.45
2019-02-07T08:07:57.864Z,25.15
2019-02-07T08:08:51.115Z,25.43
2019-02-07T08:09:51.950Z,25.45
2019-02-07T08:10:33.651Z,25.70
2019-02-07T08:11:41.452Z,26.35
2019-02-07T08:12:37.232Z,25.35
2019-02-07T08:13:20.137Z,25.20
2019-02-07T08:14:11.720Z,25.25
2019-02-07T08:15:13.548Z,25.10
2019-02-07T08:15:56.960Z,25.45
2019-02-07T08:16:48.433Z,25.68
2019-02-07T08:17:47.842Z,25.48
2019-02-07T08:18:47.188Z,25.60
2019-02-07T08:19:37.482Z,25.27
2019-02-07T08:20:49.521Z,24.72
2019-02-07T08:21:38.636Z,25.05
2019-02-07T08:22:30.134Z,25.05
2019-02-07T08:23:23.020Z,24.60
2019-02-07T08:24:12.531Z,25.45
2019-02-07T08:25:00.914Z,24.82
2019-02-07T08:25:44.905Z,25.23
2019-02-07T08:26:27.504Z,25.62
2019-02-07T08:27:20.416Z,24.82
2019-02-07T08:28:13.702Z,25.25
2019-02-07T08:29:05.100Z,25.20
2019-02-07T08:29:58.852Z,24.90
2019-02-07T08:31:00.474Z,24.87
2019-02-07T08:31:55.788Z,24.10
2019-02-07T08:32:47.030Z,24.82
2019-02-07T08:33:39.877Z,24.80
2019-02-07T08:34:31.608Z,24.63
2019-02-07T08:35:31.964Z,24.70
2019-02-07T08:36:18.107Z,25.00
2019-02-07T08:37:19.813Z,25.68
2019-02-07T08:38:12.697Z,24.70
2019-02-07T08:38:59.108Z,24.07
2019-02-07T08:39:51.324Z,24.70
2019-02-07T08:40:44.106Z,24.80
2019-02-07T08:41:34.456Z,23.67
2019-02-07T08:42:27.320Z,24.23
2019-02-07T08:43:12.067Z,24.40
2019-02-07T08:44:13.870Z,24.55
2019-02-07T08:45:11.144Z,24.52
2019-02-07T08:46:03.887Z,24.37
2019-02-07T08:46:55.265Z,24.23
2019-02-07T08:47:58.441Z,24.07
2019-02-07T08:48:44.900Z,23.47
2019-02-07T08:49:40.338Z,24.10
2019-02-07T08:50:26.334Z,24.07
2019-02-07T08:51:34.632Z,24.25
2019-02-07T08:52:27.324Z,24.15
2019-02-07T08:53:22.891Z,24.70
2019-02-07T08:54:14.368Z,23.10
2019-02-07T08:54:54.002Z,23.40
2019-02-07T08:56:01.863Z,23.83
2019-02-07T08:56:57.642Z,23.87
2019-02-07T08:57:50.478Z,23.77
2019-02-07T08:58:48.190Z,23.67
2019-02-07T08:59:53.150Z,23.42
2019-02-07T09:00:33.488Z,24.12
2019-02-07T09:01:35.274Z,23.95
2019-02-07T09:02:16.856Z,23.77
2019-02-07T09:03:01.223Z,23.70
2019-02-07T09:03:49.854Z,23.80
2019-02-07T09:04:33.416Z,24.10
2019-02-07T09:05:37.152Z,23.83
2019-02-07T09:06:41.772Z,24.05
2019-02-07T09:07:33.337Z,23.60
2019-02-07T09:08:24.803Z,23.30
2019-02-07T09:09:20.687Z,23.90
2019-02-07T09:10:19.075Z,23.65
2019-02-07T09:11:11.280Z,23.55
2019-02-07T09:12:09.993Z,24.25
2019-02-07T09:13:01.292Z,23.75
2019-02-07T09:13:53.909Z,23.00
2019-02-07T09:14:46.800Z,23.80
2019-02-07T09:15:48.504Z,23.75
2019-02-07T09:16:53.097Z,23.77
2019-02-07T09:17:48.465Z,23.62
2019-02-07T09:18:50.607Z,23.67
2019-02-07T09:19:48.323Z,23.70
2019-02-07T09:20:30.855Z,23.98
2019-02-07T09:21:32.341Z,24.18
2019-02-07T09:22:18.062Z,24.02
2019-02-07T09:23:06.890Z,23.57
2019-02-07T09:23:58.357Z,24.35
2019-02-07T09:25:03.478Z,23.87
2019-02-07T09:25:57.311Z,23.60
2019-02-07T09:26:41.123Z,23.57
2019-02-07T09:27:26.524Z,23.85
2019-02-07T09:28:19.281Z,23.62
2019-02-07T09:29:05.095Z,23.83
2019-02-07T09:29:56.653Z,23.62
2019-02-07T09:30:48.438Z,23.42
2019-02-07T09:31:40.086Z,23.42
2019-02-07T09:32:46.039Z,23.73
2019-02-07T09:33:46.917Z,23.73
2019-02-07T09:34:33.248Z,24.27
2019-02-07T09:35:31.999Z,24.02
2019-02-07T09:36:36.925Z,23.25
2019-02-07T09:37:41.773Z,24.47
2019-02-07T09:38:34.689Z,24.12
2019-02-07T09:39:28.078Z,23.45
2019-02-07T09:40:29.695Z,23.55
2019-02-07T09:41:28.166Z,23.87
2019-02-07T09:42:24.556Z,23.73
2019-02-07T09:43:09.206Z,23.65
2019-02-07T09:43:50.359Z,23.73
2019-02-07T09:44:43.200Z,23.87
2019-02-07T09:45:37.959Z,23.95